Terminal Aerodrome Forecast
Issued by NWS

Current Version | Previous Version | Text Only | Print | Product List | Glossary On
Versions: 1 2 3 4 5 6 7 8 9 10 11 12 13 14 15 16
000
FTUS42 KTAE 182300
TAFDHN
TAF
KDHN 182320Z 1900/1924 03018G25KT P6SM FEW035
     FM190200 36013G20KT P6SM OVC007
     FM190600 34011KT 6SM BR OVC004
     FM191400 36013G18KT P6SM BKN020
     FM192000 35011G16KT P6SM SCT030=

USA.gov is the U.S. government's official web portal to all federal, state and local government web resources and services.